Time;durP1;ratioP1;P1;durP2;ratioP2;P2;SDS_P1;SDS_P2;PMS_P1;PMS_P2;Temp;Humidity;BMP_temperature;BMP_pressure;BME280_temperature;BME280_humidity;BME280_pressure;Samples;Min_cycle;Max_cycle;Signal;HPM_P1;HPM_P2
2022/08/30 00:01:01;;;;;;;0.70;0.70;;;19.00;68.90;;;19.34;54.14;95316.50;5042614;28;20211;-79
2022/08/30 00:02:00;;;;;;;0.50;0.50;;;19.00;69.00;;;19.32;54.13;95310.63;5021359;28;20225;-79
2022/08/30 00:04:27;;;;;;;0.50;0.50;;;18.90;69.00;;;19.26;54.67;95308.09;5020230;28;20208;-79
2022/08/30 00:06:54;;;;;;;0.50;0.50;;;18.90;69.00;;;19.20;54.12;95307.19;5015192;28;20250;-79
2022/08/30 00:09:22;;;;;;;0.43;0.43;;;18.90;69.10;;;19.16;54.31;95322.00;4983138;28;20363;-79
2022/08/30 00:11:50;;;;;;;0.60;0.60;;;18.80;69.10;;;19.11;54.16;95317.38;4982744;28;20224;-79
2022/08/30 00:14:19;;;;;;;0.50;0.50;;;18.80;69.30;;;19.03;54.80;95312.44;5021326;28;20224;-79
2022/08/30 00:16:46;;;;;;;0.50;0.50;;;18.70;69.30;;;19.00;54.49;95313.69;5018269;28;20215;-79
2022/08/30 00:19:13;;;;;;;0.55;0.55;;;18.70;69.30;;;18.98;54.95;95317.63;5030116;28;20312;-79
2022/08/30 00:21:40;;;;;;;0.50;0.50;;;18.60;69.40;;;18.95;54.92;95323.44;5030096;28;20225;-79
2022/08/30 00:24:08;;;;;;;0.50;0.50;;;18.60;69.60;;;18.91;55.23;95317.78;4998649;28;20697;-79
2022/08/30 00:26:35;;;;;;;0.70;0.70;;;18.60;69.60;;;18.86;55.32;95323.75;4998829;28;20220;-79
2022/08/30 00:29:02;;;;;;;0.40;0.40;;;18.50;69.70;;;18.82;55.18;95321.81;4998348;28;20197;-78
2022/08/30 00:31:29;;;;;;;0.50;0.50;;;18.50;69.70;;;18.78;54.77;95321.47;5025784;28;20234;-79
2022/08/30 00:33:57;;;;;;;0.50;0.50;;;18.50;69.70;;;18.75;55.02;95318.47;5033811;28;20251;-79
2022/08/30 00:36:24;;;;;;;0.60;0.60;;;18.40;69.70;;;18.70;55.08;95312.00;5017868;28;20224;-79
2022/08/30 00:38:51;;;;;;;0.50;0.50;;;18.40;69.80;;;18.70;55.42;95325.28;5033175;28;20192;-78
2022/08/30 00:41:18;;;;;;;0.50;0.50;;;18.30;70.00;;;18.66;55.36;95315.34;5018177;28;20255;-79
2022/08/30 00:43:45;;;;;;;0.50;0.50;;;18.30;70.00;;;18.66;55.38;95316.19;5017821;28;20567;-79
2022/08/30 00:46:13;;;;;;;0.50;0.50;;;18.30;70.10;;;18.64;55.54;95314.78;5032833;28;20215;-79
2022/08/30 00:48:46;;;;;;;0.75;0.75;;;18.30;70.00;;;18.63;55.50;95313.19;5017339;28;20212;-79
2022/08/30 00:51:15;;;;;;;0.60;0.60;;;18.20;70.20;;;18.61;55.58;95315.25;5024844;28;20231;-79
2022/08/30 00:53:53;;;;;;;0.55;0.55;;;18.20;70.20;;;18.56;55.46;95318.59;5000844;28;20213;-79
2022/08/30 00:56:23;;;;;;;0.50;0.50;;;18.20;70.40;;;18.52;55.38;95312.16;4998243;28;20228;-80
2022/08/30 00:58:55;;;;;;;0.50;0.50;;;18.20;70.30;;;18.49;55.60;95320.56;5015025;28;20304;-79
2022/08/30 01:01:23;;;;;;;0.52;0.52;;;18.20;70.60;;;18.45;56.06;95327.38;4995214;28;20235;-79
2022/08/30 01:03:52;;;;;;;0.70;0.70;;;18.10;70.40;;;18.45;55.84;95327.38;5000039;28;20207;-78
2022/08/30 01:06:20;;;;;;;0.50;0.50;;;18.10;70.40;;;18.42;55.86;95331.31;5033134;28;20227;-79
2022/08/30 01:08:47;;;;;;;0.57;0.57;;;18.10;70.60;;;18.41;55.90;95332.34;5034965;28;20206;-79
2022/08/30 01:11:21;;;;;;;0.57;0.57;;;18.00;70.70;;;18.43;55.92;95326.81;5034737;28;20475;-79
2022/08/30 01:13:51;;;;;;;0.50;0.50;;;18.00;71.00;;;18.45;56.39;95330.84;5032615;28;20231;-79
2022/08/30 01:16:20;;;;;;;0.40;0.40;;;18.10;71.10;;;18.49;56.09;95324.03;5033890;28;20236;-79
2022/08/30 01:18:50;;;;;;;0.50;0.50;;;18.10;72.10;;;18.53;56.79;95325.19;5033942;28;20234;-79
2022/08/30 01:21:37;;;;;;;0.60;0.60;;;18.10;71.40;;;18.59;56.56;95320.81;5001086;28;20724;-79
2022/08/30 01:24:07;;;;;;;0.50;0.50;;;18.20;71.70;;;18.65;56.60;95316.41;5029395;28;20275;-79
2022/08/30 01:26:36;;;;;;;0.50;0.50;;;18.20;71.40;;;18.68;56.09;95316.72;5028337;28;20227;-79
2022/08/30 01:29:09;;;;;;;0.60;0.60;;;18.30;71.50;;;18.70;56.39;95321.81;4997650;28;20205;-78
2022/08/30 01:31:36;;;;;;;0.45;0.45;;;18.30;71.70;;;18.73;56.42;95310.72;4997618;28;20221;-79
2022/08/30 01:34:06;;;;;;;0.50;0.50;;;18.30;71.30;;;18.75;56.01;95313.16;5019714;28;20247;-78
2022/08/30 01:36:36;;;;;;;0.50;0.50;;;18.40;71.50;;;18.73;56.51;95316.84;5013522;28;20220;-79
2022/08/30 01:39:15;;;;;;;0.45;0.45;;;18.40;71.40;;;18.69;56.04;95313.03;5017432;28;20654;-79
2022/08/30 01:41:42;;;;;;;0.50;0.50;;;18.40;71.30;;;18.65;56.26;95311.06;5016845;28;20655;-79
2022/08/30 01:44:11;;;;;;;0.50;0.50;;;18.40;71.10;;;18.60;56.13;95326.91;5004386;28;20310;-79
2022/08/30 01:46:44;;;;;;;0.50;0.50;;;18.30;71.00;;;18.53;56.27;95319.06;4997048;28;20218;-79
2022/08/30 01:49:17;;;;;;;0.50;0.50;;;18.30;71.20;;;18.47;56.31;95320.81;5015064;28;20548;-79
2022/08/30 01:51:55;;;;;;;0.50;0.50;;;18.30;71.10;;;18.40;56.64;95314.78;5031558;28;20278;-78
2022/08/30 01:54:32;;;;;;;0.60;0.60;;;18.20;70.90;;;18.34;56.76;95318.38;4998534;28;20219;-79
2022/08/30 01:57:08;;;;;;;0.50;0.50;;;18.10;70.90;;;18.28;56.30;95321.94;5013244;28;20236;-79
2022/08/30 01:59:38;;;;;;;0.50;0.50;;;18.00;70.90;;;18.24;56.38;95322.41;4981009;28;20251;-79
2022/08/30 02:02:06;;;;;;;0.60;0.60;;;17.90;71.00;;;18.20;56.87;95323.09;5008037;28;20327;-79
2022/08/30 02:04:35;;;;;;;0.60;0.60;;;17.90;71.00;;;18.15;56.63;95318.47;4980952;28;20196;-79
2022/08/30 02:07:04;;;;;;;0.50;0.50;;;17.90;71.10;;;18.12;56.68;95316.28;4980902;28;20217;-79
2022/08/30 02:09:31;;;;;;;0.60;0.60;;;17.80;71.20;;;18.10;57.03;95318.34;5017883;28;20196;-79
2022/08/30 02:11:58;;;;;;;0.60;0.60;;;17.80;71.30;;;18.05;56.74;95312.91;5022807;28;20220;-79
2022/08/30 02:14:26;;;;;;;0.50;0.50;;;17.80;71.50;;;18.05;57.18;95316.41;4996206;28;20241;-79
2022/08/30 02:16:53;;;;;;;0.50;0.50;;;17.70;71.40;;;18.01;57.22;95312.56;4996531;28;20221;-79
2022/08/30 02:19:20;;;;;;;0.50;0.50;;;17.70;71.40;;;17.99;57.34;95317.31;5012162;28;20201;-77
2022/08/30 02:21:48;;;;;;;0.50;0.50;;;17.70;71.50;;;17.95;57.17;95321.44;5025422;28;20228;-78
2022/08/30 02:24:15;;;;;;;0.60;0.60;;;17.60;71.50;;;17.87;57.21;95306.63;5012827;28;20544;-79
2022/08/30 02:26:42;;;;;;;0.50;0.50;;;17.60;71.70;;;17.89;57.10;95319.66;5012970;28;20205;-78
2022/08/30 02:29:09;;;;;;;0.50;0.50;;;17.60;71.70;;;17.86;57.46;95314.84;4995368;28;20209;-79
2022/08/30 02:31:36;;;;;;;0.60;0.60;;;17.50;71.60;;;17.81;57.38;95306.72;4995679;28;20224;-79
2022/08/30 02:34:05;;;;;;;0.50;0.50;;;17.50;71.70;;;17.82;57.30;95314.47;5012268;28;20306;-79
2022/08/30 02:36:32;;;;;;;0.50;0.50;;;17.50;71.80;;;17.78;57.81;95310.66;5012738;28;20223;-79
2022/08/30 02:39:00;;;;;;;0.57;0.57;;;17.50;71.90;;;17.75;57.39;95311.91;5012304;28;20188;-79
2022/08/30 02:41:27;;;;;;;0.60;0.60;;;17.50;71.90;;;17.74;57.73;95312.94;5028318;28;20221;-79
2022/08/30 02:43:57;;;;;;;0.50;0.50;;;17.50;72.00;;;17.72;58.12;95312.38;5012370;28;20251;-79
2022/08/30 02:46:25;;;;;;;0.50;0.50;;;17.40;72.10;;;17.71;57.54;95310.75;4996444;28;20647;-79
2022/08/30 02:48:59;;;;;;;0.50;0.50;;;17.40;72.10;;;17.70;57.74;95311.78;5028455;28;20245;-79
2022/08/30 02:51:46;;;;;;;0.60;0.60;;;17.50;72.30;;;17.72;58.19;95315.03;5001735;28;20212;-79
2022/08/30 02:54:18;;;;;;;0.50;0.50;;;17.40;72.30;;;17.72;57.77;95314.19;5012473;28;20311;-79
2022/08/30 02:56:47;;;;;;;0.60;0.60;;;17.50;72.40;;;17.72;58.31;95315.03;5017548;28;20223;-79
2022/08/30 02:59:17;;;;;;;0.50;0.50;;;17.50;72.50;;;17.74;58.16;95317.44;5011470;28;20212;-79
2022/08/30 03:01:44;;;;;;;0.50;0.50;;;17.50;72.60;;;17.76;58.61;95310.88;5011945;28;20295;-80
2022/08/30 03:04:12;;;;;;;0.52;0.52;;;17.50;72.70;;;17.82;58.57;95314.47;5012029;28;20216;-79
2022/08/30 03:06:39;;;;;;;0.60;0.60;;;17.50;72.70;;;17.85;58.23;95315.88;5011164;28;20223;-79
2022/08/30 03:09:06;;;;;;;0.50;0.50;;;17.50;72.80;;;17.89;58.59;95309.88;5001907;28;20681;-79
2022/08/30 03:11:34;;;;;;;0.50;0.50;;;17.60;72.80;;;17.91;58.05;95312.28;5015046;28;20226;-79
2022/08/30 03:14:02;;;;;;;0.60;0.60;;;17.60;72.90;;;17.99;58.29;95316.47;5013547;28;20230;-79
2022/08/30 03:16:29;;;;;;;0.60;0.60;;;17.60;72.80;;;18.00;58.57;95310.16;5014075;28;20315;-78
2022/08/30 03:18:58;;;;;;;0.50;0.50;;;17.70;72.80;;;17.98;58.34;95313.03;4991479;28;20192;-79
2022/08/30 03:21:26;;;;;;;0.60;0.60;;;17.60;72.60;;;18.00;58.46;95315.44;5015122;28;20230;-79
2022/08/30 03:23:53;;;;;;;0.60;0.60;;;17.70;72.60;;;17.97;58.11;95316.72;5031604;28;20184;-78
2022/08/30 03:26:20;;;;;;;0.50;0.50;;;17.60;72.50;;;17.96;58.03;95314.31;5013600;28;20207;-80
2022/08/30 03:28:47;;;;;;;0.50;0.50;;;17.60;72.60;;;17.92;58.20;95311.25;5011445;28;20243;-79
2022/08/30 03:31:14;;;;;;;0.50;0.50;;;17.60;72.60;;;17.88;57.86;95315.41;4994581;28;20235;-79
2022/08/30 03:33:42;;;;;;;0.50;0.50;;;17.60;72.60;;;17.85;57.74;95314.00;5002372;28;20214;-79
2022/08/30 03:36:10;;;;;;;0.47;0.47;;;17.60;72.60;;;17.83;58.37;95312.63;5005286;28;20238;-79
2022/08/30 03:38:38;;;;;;;0.55;0.55;;;17.60;72.70;;;17.77;58.59;95317.81;5005037;28;20665;-78
2022/08/30 03:41:05;;;;;;;0.50;0.50;;;17.50;72.60;;;17.74;58.81;95314.78;5028270;28;20220;-79
2022/08/30 03:43:34;;;;;;;0.52;0.52;;;17.50;72.80;;;17.71;58.31;95310.75;5002829;28;20212;-79
2022/08/30 03:46:03;;;;;;;0.50;0.50;;;17.50;72.80;;;17.69;58.61;95306.72;5014603;28;20231;-79
2022/08/30 03:48:30;;;;;;;0.50;0.50;;;17.40;72.80;;;17.68;58.82;95307.75;5013786;28;20197;-79
2022/08/30 03:50:58;;;;;;;0.50;0.50;;;17.40;72.90;;;17.67;58.72;95312.22;5011728;28;20462;-79
2022/08/30 03:53:25;;;;;;;0.50;0.50;;;17.40;72.90;;;17.65;58.50;95308.19;5026999;28;20200;-79
2022/08/30 03:55:53;;;;;;;0.52;0.52;;;17.40;73.00;;;17.62;58.44;95306.78;5029073;28;20220;-79
2022/08/30 03:58:23;;;;;;;0.50;0.50;;;17.40;73.00;;;17.62;58.82;95309.44;5027995;28;20188;-79
2022/08/30 04:00:50;;;;;;;0.60;0.60;;;17.40;72.80;;;17.57;58.82;95307.47;5033952;28;20721;-80
2022/08/30 04:03:19;;;;;;;0.50;0.50;;;17.30;72.80;;;17.54;58.71;95304.47;5001268;28;20200;-80
2022/08/30 04:05:46;;;;;;;0.80;0.80;;;17.30;73.00;;;17.50;58.97;95306.75;5009362;28;20199;-79
2022/08/30 04:08:14;;;;;;;0.60;0.60;;;17.30;73.00;;;17.49;58.64;95309.63;5023470;28;20197;-80
2022/08/30 04:10:41;;;;;;;0.50;0.50;;;17.30;73.00;;;17.44;58.41;95305.00;4999094;28;20286;-79
2022/08/30 04:13:08;;;;;;;0.50;0.50;;;17.20;72.90;;;17.39;58.71;95299.56;5003882;28;20212;-79
2022/08/30 04:15:35;;;;;;;0.60;0.60;;;17.20;72.90;;;17.27;58.61;95289.75;4985943;28;20394;-79
2022/08/30 04:18:02;;;;;;;0.70;0.70;;;17.10;72.90;;;17.28;59.02;95304.63;4999881;28;20236;-80
2022/08/30 04:20:30;;;;;;;0.50;0.50;;;17.10;72.90;;;17.23;59.01;95306.31;5004871;28;20665;-79
2022/08/30 04:22:57;;;;;;;0.60;0.60;;;17.10;73.10;;;17.18;59.09;95306.97;5000956;28;20224;-79
2022/08/30 04:25:25;;;;;;;0.60;0.60;;;17.00;73.10;;;17.17;58.97;95310.66;4980245;28;20690;-79
2022/08/30 04:27:52;;;;;;;0.60;0.60;;;17.00;73.10;;;17.16;58.79;95318.84;4988703;28;20228;-79
2022/08/30 04:30:19;;;;;;;0.60;0.60;;;16.90;73.00;;;17.11;59.01;95308.91;4993243;28;20216;-79
2022/08/30 04:32:47;;;;;;;0.50;0.50;;;16.90;73.20;;;17.12;59.19;95316.66;4990846;28;20215;-79
2022/08/30 04:35:14;;;;;;;0.60;0.60;;;16.90;73.30;;;17.11;58.94;95322.97;4999126;28;20224;-80
2022/08/30 04:37:41;;;;;;;0.50;0.50;;;16.80;73.30;;;17.10;58.85;95323.19;5001162;28;20220;-79
2022/08/30 04:40:09;;;;;;;0.60;0.60;;;16.90;73.40;;;17.09;59.04;95324.22;5017481;28;20288;-80
2022/08/30 04:42:37;;;;;;;0.50;0.50;;;16.80;73.50;;;17.07;59.36;95321.78;4998679;28;20221;-80
2022/08/30 04:45:10;;;;;;;0.52;0.52;;;16.80;73.50;;;17.08;59.53;95322.59;5007574;28;20223;-80
2022/08/30 04:47:38;;;;;;;0.70;0.70;;;16.80;73.80;;;17.09;59.42;95321.59;5013221;28;20219;-80
2022/08/30 04:50:08;;;;;;;0.60;0.60;;;16.80;73.80;;;17.09;59.47;95338.28;5017918;28;20208;-80
2022/08/30 04:52:35;;;;;;;0.50;0.50;;;16.80;74.00;;;17.10;59.43;95336.44;5022398;28;20217;-81
2022/08/30 04:55:05;;;;;;;0.40;0.40;;;16.80;73.90;;;17.10;59.34;95328.47;5021997;28;20220;-81
2022/08/30 04:57:32;;;;;;;0.60;0.60;;;16.80;73.90;;;17.11;59.51;95332.75;5014996;28;20318;-81
2022/08/30 04:59:59;;;;;;;0.60;0.60;;;16.80;73.90;;;17.12;59.75;95334.38;5008284;28;20200;-81
2022/08/30 05:02:26;;;;;;;0.50;0.50;;;16.80;73.90;;;17.14;59.45;95337.63;5008130;28;20216;-81
2022/08/30 05:07:40;;;;;;;0.50;0.50;;;16.90;74.20;;;17.18;59.62;95336.13;5015688;28;20703;-81
2022/08/30 05:10:08;;;;;;;0.50;0.50;;;16.90;74.20;;;17.22;59.96;95347.94;5024777;28;20219;-81
2022/08/30 05:12:39;;;;;;;0.50;0.50;;;17.00;74.40;;;17.26;60.27;95354.38;5031816;28;20217;-80
2022/08/30 05:15:07;;;;;;;0.50;0.50;;;17.00;74.50;;;17.32;60.24;95359.84;5014195;28;20220;-78
2022/08/30 05:17:37;;;;;;;0.50;0.50;;;17.10;74.60;;;17.36;60.14;95364.47;5023284;28;20212;-79
2022/08/30 05:20:07;;;;;;;0.50;0.50;;;17.10;74.80;;;17.42;60.26;95368.06;5016071;28;20208;-80
2022/08/30 05:22:40;;;;;;;0.50;0.50;;;17.20;74.80;;;17.49;60.52;95367.97;4998278;28;20216;-80
2022/08/30 05:25:07;;;;;;;0.52;0.52;;;17.20;75.00;;;17.56;60.19;95366.84;4999561;28;20239;-80
2022/08/30 05:27:35;;;;;;;0.50;0.50;;;17.20;74.80;;;17.62;60.10;95367.81;5018869;28;20216;-80
2022/08/30 05:30:05;;;;;;;0.50;0.50;;;17.30;74.90;;;17.71;60.29;95368.28;5029618;28;20196;-81
2022/08/30 05:32:32;;;;;;;0.50;0.50;;;17.40;74.80;;;17.77;60.29;95367.38;5005786;28;20208;-80
2022/08/30 05:34:59;;;;;;;0.50;0.50;;;17.50;74.90;;;17.85;60.29;95366.28;5023472;28;20248;-81
2022/08/30 05:37:26;;;;;;;0.50;0.50;;;17.50;75.00;;;17.90;60.48;95372.50;5012752;28;20216;-81
2022/08/30 05:39:55;;;;;;;0.50;0.50;;;17.60;75.00;;;17.93;60.62;95374.72;4997639;28;20204;-81
2022/08/30 05:42:22;;;;;;;0.50;0.50;;;17.70;75.00;;;18.02;60.49;95372.56;5015017;28;20238;-80
2022/08/30 05:44:53;;;;;;;0.60;0.60;;;17.70;75.00;;;18.11;60.89;95374.91;5029903;28;20204;-81
2022/08/30 05:47:21;;;;;;;0.50;0.50;;;17.80;75.30;;;18.17;60.65;95374.78;5022907;28;20212;-80
2022/08/30 05:49:49;;;;;;;0.50;0.50;;;17.90;75.10;;;18.24;60.24;95380.81;5015472;28;20207;-81
2022/08/30 05:52:17;;;;;;;0.57;0.57;;;18.00;75.10;;;18.30;60.43;95375.66;5014817;28;20227;-81
2022/08/30 05:54:49;;;;;;;0.60;0.60;;;18.10;75.20;;;18.36;60.31;95380.84;5031491;28;20279;-81
2022/08/30 05:57:17;;;;;;;0.50;0.50;;;18.10;75.10;;;18.44;60.42;95381.53;5013817;28;20267;-81
2022/08/30 05:59:44;;;;;;;0.45;0.45;;;18.10;75.00;;;18.52;60.38;95381.22;5014813;28;20200;-82
2022/08/30 06:02:11;;;;;;;0.40;0.40;;;18.30;75.20;;;18.59;60.45;95383.75;5014392;28;20311;-80
2022/08/30 06:04:39;;;;;;;0.40;0.40;;;18.30;75.20;;;18.67;60.52;95386.84;5031149;28;20192;-80
2022/08/30 06:07:09;;;;;;;0.50;0.50;;;18.40;75.30;;;18.76;60.23;95384.69;5014926;28;20265;-80
2022/08/30 06:09:41;;;;;;;0.50;0.50;;;18.50;75.30;;;18.85;60.48;95382.47;5022436;28;20287;-79
2022/08/30 06:12:08;;;;;;;0.50;0.50;;;18.60;75.10;;;18.92;60.60;95383.19;4999448;28;20286;-80
2022/08/30 06:14:37;;;;;;;0.40;0.40;;;18.70;75.10;;;19.02;60.37;95391.38;5013648;28;20222;-79
2022/08/30 06:17:05;;;;;;;0.50;0.50;;;18.70;75.00;;;19.11;60.01;95391.81;5016189;28;20260;-80
2022/08/30 06:19:33;;;;;;;0.40;0.40;;;18.80;75.00;;;19.20;60.32;95387.78;5009890;28;20211;-80
2022/08/30 06:22:00;;;;;;;0.40;0.40;;;18.90;75.00;;;19.30;59.95;95397.00;5031675;28;20215;-80
2022/08/30 06:24:27;;;;;;;0.43;0.43;;;19.00;74.80;;;19.39;60.10;95398.25;5030279;28;20643;-80
2022/08/30 06:27:14;;;;;;;0.40;0.40;;;19.10;74.80;;;19.49;59.67;95394.97;5021178;28;20223;-81
2022/08/30 06:29:41;;;;;;;0.40;0.40;;;19.20;74.60;;;19.58;59.77;95396.25;5013483;28;20201;-81
2022/08/30 06:32:08;;;;;;;0.50;0.50;;;19.30;74.80;;;19.69;59.65;95389.25;5013600;28;20274;-81
2022/08/30 06:34:35;;;;;;;0.60;0.60;;;19.40;74.70;;;19.78;59.74;95393.13;5023311;28;20199;-79
2022/08/30 06:37:03;;;;;;;0.50;0.50;;;19.50;74.60;;;19.87;59.43;95390.94;5013488;28;20757;-80
2022/08/30 06:39:30;;;;;;;0.40;0.40;;;19.60;74.60;;;19.97;59.54;95399.13;5012358;28;20283;-79
2022/08/30 06:41:57;;;;;;;0.50;0.50;;;19.70;74.50;;;20.07;59.57;95398.47;5011529;28;20319;-79
2022/08/30 06:44:29;;;;;;;0.50;0.50;;;19.80;74.20;;;20.14;59.36;95390.31;4997027;28;20239;-81
2022/08/30 06:46:56;;;;;;;0.40;0.40;;;19.90;74.00;;;20.22;59.07;95389.16;4996046;28;20223;-78
2022/08/30 06:49:23;;;;;;;0.40;0.40;;;20.00;74.00;;;20.29;59.19;95387.13;4996175;28;20203;-78
2022/08/30 06:51:52;;;;;;;0.52;0.52;;;20.00;73.80;;;20.39;58.88;95387.28;4995453;28;20217;-79
2022/08/30 06:54:20;;;;;;;0.40;0.40;;;20.10;73.80;;;20.48;58.99;95388.50;5002620;28;20247;-81
2022/08/30 06:56:47;;;;;;;0.40;0.40;;;20.20;73.80;;;20.54;58.87;95386.72;5000918;28;20258;-81
2022/08/30 06:59:25;;;;;;;0.30;0.30;;;20.30;73.60;;;20.62;59.27;95388.19;5006431;28;20209;-81
2022/08/30 07:01:54;;;;;;;0.40;0.40;;;20.40;73.90;;;20.71;59.21;95384.03;5000915;28;20219;-80
2022/08/30 07:04:21;;;;;;;0.40;0.40;;;20.50;73.80;;;20.82;59.00;95398.34;5031794;28;20189;-79
2022/08/30 07:06:48;;;;;;;0.40;0.40;;;20.50;73.60;;;20.90;58.69;95394.50;5031802;28;20221;-78
2022/08/30 07:09:17;;;;;;;0.40;0.40;;;20.60;73.60;;;20.98;58.47;95396.72;5015447;28;20201;-79
2022/08/30 07:11:44;;;;;;;0.40;0.40;;;20.70;73.50;;;21.06;58.62;95392.84;5016965;28;20231;-81
2022/08/30 07:14:11;;;;;;;0.40;0.40;;;20.80;73.30;;;21.11;58.46;95393.69;5012165;28;20249;-78
2022/08/30 07:16:39;;;;;;;0.40;0.40;;;20.90;73.50;;;21.21;58.56;95392.22;4995445;28;20239;-79
2022/08/30 07:19:06;;;;;;;0.40;0.40;;;21.00;73.40;;;21.30;58.22;95388.09;4995883;28;20669;-79
2022/08/30 07:21:44;;;;;;;0.43;0.43;;;21.10;73.30;;;21.39;58.15;95397.25;5019811;28;20688;-81
2022/08/30 07:24:12;;;;;;;0.40;0.40;;;21.20;73.20;;;21.48;57.98;95402.94;4979621;28;20198;-82
2022/08/30 07:26:46;;;;;;;0.40;0.40;;;21.20;73.00;;;21.55;58.11;95392.91;4995441;28;20220;-81
2022/08/30 07:29:13;;;;;;;0.40;0.40;;;21.30;72.70;;;21.64;57.41;95400.50;5015117;28;20216;-81
2022/08/30 07:31:41;;;;;;;0.40;0.40;;;21.40;72.60;;;21.73;57.52;95396.34;5009752;28;20223;-79
2022/08/30 07:34:09;;;;;;;0.40;0.40;;;21.50;72.50;;;21.81;57.85;95395.88;4988169;28;20602;-80
2022/08/30 07:36:37;;;;;;;0.50;0.50;;;21.60;72.70;;;21.90;57.90;95396.25;5031303;28;20230;-79
2022/08/30 07:39:06;;;;;;;0.50;0.50;;;21.70;72.90;;;22.00;57.61;95404.34;5031083;28;20224;-78
2022/08/30 07:41:37;;;;;;;0.40;0.40;;;21.70;72.50;;;22.11;57.25;95399.13;4995649;28;20224;-78
2022/08/30 07:44:09;;;;;;;0.40;0.40;;;21.80;71.90;;;22.17;56.87;95393.56;5031358;28;20195;-78
2022/08/30 07:46:38;;;;;;;0.50;0.50;;;21.90;71.80;;;22.28;57.09;95401.69;5011719;28;20231;-78
2022/08/30 07:49:06;;;;;;;0.40;0.40;;;22.00;72.10;;;22.39;56.66;95406.09;5041040;28;20206;-79
2022/08/30 07:51:38;;;;;;;0.30;0.30;;;22.10;71.80;;;22.49;56.35;95406.16;5029546;28;20272;-81
2022/08/30 07:54:06;;;;;;;0.60;0.60;;;22.20;71.40;;;22.56;56.42;95403.28;4995104;28;20205;-81
2022/08/30 07:56:33;;;;;;;0.30;0.30;;;22.30;71.40;;;22.66;55.94;95405.22;5031149;28;20399;-78
2022/08/30 07:59:01;;;;;;;0.40;0.40;;;22.40;70.90;;;22.74;55.54;95410.09;5022817;28;20203;-78
2022/08/30 08:01:28;;;;;;;0.43;0.43;;;22.50;70.90;;;22.82;55.33;95396.22;5018518;28;20226;-77
2022/08/30 08:03:56;;;;;;;0.30;0.30;;;22.60;71.30;;;22.92;55.21;95400.06;5011574;28;20672;-78
2022/08/30 08:06:24;;;;;;;0.40;0.40;;;22.70;70.30;;;23.01;55.14;95390.50;5006439;28;20314;-79
2022/08/30 08:08:52;;;;;;;0.32;0.32;;;22.70;69.90;;;23.10;54.71;95396.94;4994520;28;20189;-77
2022/08/30 08:11:24;;;;;;;0.40;0.40;;;22.80;69.70;;;23.21;54.07;95395.16;5014822;28;20219;-78
2022/08/30 08:13:56;;;;;;;0.30;0.30;;;22.90;69.10;;;23.29;53.90;95391.16;5015342;28;20215;-79
2022/08/30 08:16:29;;;;;;;0.40;0.40;;;23.00;69.20;;;23.40;53.76;95406.22;5005515;28;20247;-80
2022/08/30 08:18:57;;;;;;;0.40;0.40;;;23.10;69.10;;;23.46;53.54;95399.84;4995078;28;20193;-80
2022/08/30 08:21:26;;;;;;;0.30;0.30;;;23.20;68.90;;;23.54;53.06;95397.72;5013446;28;20672;-80
2022/08/30 08:23:53;;;;;;;0.40;0.40;;;23.30;68.60;;;23.60;52.63;95391.31;4999015;28;20208;-79
2022/08/30 08:26:21;;;;;;;0.40;0.40;;;23.30;68.10;;;23.67;52.24;95394.56;5017045;28;20213;-78
2022/08/30 08:28:48;;;;;;;0.40;0.40;;;23.40;67.60;;;23.75;51.84;95390.53;4999111;28;20208;-78
2022/08/30 08:31:22;;;;;;;0.43;0.43;;;23.50;68.20;;;23.79;51.60;95380.91;5020823;28;20227;-78
2022/08/30 08:34:01;;;;;;;0.40;0.40;;;23.50;66.20;;;23.87;51.15;95387.63;5011033;28;20214;-78
2022/08/30 08:36:30;;;;;;;0.60;0.60;;;23.60;66.90;;;23.93;51.30;95391.97;5016192;28;20231;-79
2022/08/30 08:38:58;;;;;;;0.30;0.30;;;23.70;66.90;;;24.03;51.05;95396.53;5020620;28;20235;-80
2022/08/30 08:41:50;;;;;;;0.30;0.30;;;23.80;66.50;;;24.08;50.78;95402.72;5014460;28;20269;-79
2022/08/30 08:44:53;;;;;;;0.52;0.52;;;23.80;66.50;;;24.14;51.08;95398.16;4995899;28;20218;-81
2022/08/30 08:47:58;;;;;;;0.40;0.40;;;23.90;66.60;;;24.20;51.33;95388.25;4990597;28;20234;-78
2022/08/30 08:50:30;;;;;;;0.50;0.50;;;24.00;66.70;;;24.26;51.19;95397.91;5002759;28;20639;-78
2022/08/30 08:56:17;;;;;;;0.40;0.40;;;24.10;66.70;;;24.39;50.49;95389.34;4997738;28;20238;-77
2022/08/30 08:58:54;;;;;;;0.40;0.40;;;24.20;66.60;;;24.47;50.41;95390.66;4976252;28;20212;-79
2022/08/30 09:01:26;;;;;;;0.40;0.40;;;24.20;66.20;;;24.54;50.24;95387.75;4993192;28;21027;-79
2022/08/30 09:03:56;;;;;;;0.43;0.43;;;24.30;66.80;;;24.61;50.51;95385.59;4986024;28;20209;-77
2022/08/30 09:06:45;;;;;;;0.52;0.52;;;24.40;66.40;;;24.69;49.84;95381.59;5002761;28;20236;-78
2022/08/30 09:09:12;;;;;;;0.40;0.40;;;24.40;66.10;;;24.75;49.68;95375.13;5013561;28;20220;-77
2022/08/30 09:11:41;;;;;;;0.60;0.60;;;24.50;65.80;;;24.83;49.67;95371.09;5011331;28;20213;-78
2022/08/30 09:14:25;;;;;;;0.35;0.35;;;24.60;65.70;;;24.87;49.15;95366.81;4982703;28;20236;-77
2022/08/30 09:17:02;;;;;;;0.40;0.40;;;24.60;65.20;;;24.93;49.83;95361.13;4992176;28;20236;-78
2022/08/30 09:19:52;;;;;;;0.38;0.38;;;24.70;66.00;;;25.00;49.65;95368.91;5007128;28;20188;-80
2022/08/30 09:22:34;;;;;;;0.40;0.40;;;24.80;65.90;;;25.08;49.78;95364.88;5007181;28;20797;-80
2022/08/30 09:25:08;;;;;;;0.40;0.40;;;24.90;65.90;;;25.14;49.03;95358.41;5004403;28;20653;-78
2022/08/30 09:27:45;;;;;;;0.40;0.40;;;24.90;65.00;;;25.19;49.09;95355.69;5005587;28;20220;-78
2022/08/30 09:30:24;;;;;;;0.35;0.35;;;24.90;65.20;;;25.24;49.01;95352.19;4993704;28;20676;-79
2022/08/30 09:33:00;;;;;;;0.30;0.30;;;25.00;65.70;;;25.30;49.36;95356.47;4986120;28;20240;-77
2022/08/30 09:36:02;;;;;;;0.40;0.40;;;25.10;65.20;;;25.38;49.04;95349.78;5010783;28;20228;-77
2022/08/30 09:38:32;;;;;;;0.40;0.40;;;25.10;64.70;;;25.42;49.28;95343.56;4998423;28;20316;-77
2022/08/30 09:41:26;;;;;;;0.40;0.40;;;25.20;65.10;;;25.44;49.04;95339.78;5012576;28;20203;-77
2022/08/30 09:44:22;;;;;;;0.40;0.40;;;25.20;65.10;;;25.54;48.72;95347.81;4998757;28;20318;-78
2022/08/30 09:47:00;;;;;;;0.52;0.52;;;25.30;65.10;;;25.60;48.07;95340.50;4992806;28;20634;-77
2022/08/30 09:49:41;;;;;;;0.40;0.40;;;25.40;64.00;;;25.67;47.98;95341.84;5011421;28;20213;-78
2022/08/30 09:52:18;;;;;;;0.40;0.40;;;25.40;63.70;;;25.73;47.95;95331.84;4993359;28;20780;-78
2022/08/30 09:55:06;;;;;;;0.40;0.40;;;25.50;63.80;;;25.79;47.43;95338.78;5011010;28;20198;-78
2022/08/30 09:58:03;;;;;;;0.30;0.30;;;25.50;63.40;;;25.81;47.77;95328.56;5018377;28;21389;-78
2022/08/30 10:00:39;;;;;;;0.30;0.30;;;25.60;64.40;;;25.86;47.96;95325.84;5012467;28;20210;-79
2022/08/30 10:03:37;;;;;;;0.40;0.40;;;25.60;63.90;;;25.91;47.50;95326.91;4998104;28;20213;-79
2022/08/30 10:06:36;;;;;;;0.20;0.20;;;25.70;63.90;;;26.01;47.78;95327.66;5011653;28;20240;-79
2022/08/30 10:09:27;;;;;;;0.40;0.40;;;25.70;63.70;;;26.09;47.28;95323.59;4995972;28;21473;-80
2022/08/30 10:12:18;;;;;;;0.30;0.30;;;25.80;63.50;;;26.20;47.43;95327.78;5025811;28;20302;-80
2022/08/30 10:15:22;;;;;;;0.30;0.30;;;25.90;63.10;;;26.32;46.75;95329.34;5019059;28;20433;-80
2022/08/30 10:18:12;;;;;;;0.38;0.38;;;26.00;63.00;;;26.41;46.49;95318.75;5031971;28;20239;-80
2022/08/30 10:21:13;;;;;;;0.60;0.60;;;26.10;62.90;;;26.53;46.89;95317.28;5019298;28;20218;-80
2022/08/30 10:24:13;;;;;;;0.30;0.30;;;26.20;63.00;;;26.69;47.04;95317.94;5027651;28;20650;-80
2022/08/30 10:27:19;;;;;;;0.40;0.40;;;26.40;62.90;;;26.84;46.25;95318.91;5002335;28;20224;-81
2022/08/30 10:29:58;;;;;;;0.40;0.40;;;26.50;63.10;;;26.98;46.01;95310.94;5013669;28;20452;-82
2022/08/30 10:32:34;;;;;;;0.43;0.43;;;26.70;62.30;;;27.15;46.42;95313.97;5034468;28;20311;-79
2022/08/30 10:35:21;;;;;;;0.35;0.35;;;26.80;62.70;;;27.31;45.83;95313.78;5012427;28;20247;-81
2022/08/30 10:38:02;;;;;;;0.32;0.32;;;27.00;62.60;;;27.46;45.63;95308.22;4994943;28;20241;-81
2022/08/30 10:43:59;;;;;;;0.30;0.30;;;27.30;61.50;;;27.76;44.90;95311.59;5013343;28;20212;-81
2022/08/30 10:47:01;;;;;;;0.30;0.30;;;27.40;61.50;;;27.92;43.83;95295.19;5018080;28;20587;-80